LFOZ 261500Z AUTO 33005KT 270V020 CAVOK 20/15 Q1018

ElémentsDécodage
LFOZ Station météo située sur l'aérodrome de ORLEANS Saint-Denis-de-L'Hôtel
261500Z émis le 26 du mois à 15h00 UTC
AUTO Bulletin édité par un automate
33005KT vent du 330°, 05 noeuds
270V020 vent de direction variable entre 270° et 020°
CAVOK Ceiling And Visibility OK
- Visibilité de 10 Km ou plus
- Pas de nuage au-dessous de 1500m ou au-dessous de l'altitude minimale du secteur la plus élevée (si>1500m) et absence de CB
- pas de temps présent significatif
20/15 température 20°C, point de rosée 15°C
 soit une humidité relative de 73%
Q1018 la pression au niveau de la mer (QNH) est de 1018 hPa